Accueil
METAR-TAF:

METAR-TAF

Aéroports :

Majuro, Majuro Atoll, Îles Marshall

NWS Office

latitude: 07-05N, longitude: 171-12E, altitude: 4 m

Observation

Le bulletin a été fait il y a 10 minutes, à 06:54 UTC
Vent 12 kt de est
Température 29°C
Humidité 74%
Pression 1009 hPa
Visibilité: 24.1 km
Quelques nuages à une hauteur de 1500 ft
Nuages épars à une hauteur de 30000 ft

METAR: PKMR 270654Z 09012KT 15SM FEW015 SCT300 29/24 A2979 RMK SLP088 T02880244

Heure: 19:04 (07:04 UTC)


TAF: absent

Observations et prévisions météorologiques de plus de 4000 aéroports (messages METAR et TAF).

Les stations disponibles sont représentées par des disques jaunes et rouges sur la carte.

Passer la souris dessus pour voir le nom de la station.

Cliquer dessus pour voir les observations et prévisions météorologiques.

Pour changer de carte: cliquez sur les boutons verts avec une croix noire pour zoomer, sur le bouton vert avec un tiret pour effectuer un zoom arrière, ou sur les flèches vertes pour les cartes adjacentes.


METAR-TAF: